Cisco, California
Current Conditions -  °F | °C
As of 11:52 PM on Saturday 25 Oct 2014 (Local Time) from KBLU Reporting Station
Moderate Fog Moderate Fog  
Wind Chill: 36°   Ceiling: 200
Heat Index: 43°   Visibility: 0.25mi
Dew Point: 40°   Wind: 13mph
Humidity: 89%   Direction: 180°S
Pressure: 30.18"   Gusts: 24mph
Location:  39.4261°N, 120.475°W
Report Text: KBLU 260652Z AUTO 18011G21KT 1/4SM FG VV002 06/04 A3018 RMK AO2 RAE46 SLP199 P0002 T00610044
Loading
Personal Weather Stations






























Interactive Weather Map
Tropical Storm Tracking
New forecast layout! Learn more

10-Day Weather Forecast

Advertisements
Track Severe Weather on mobile